Terminal Aerodrome Forecast
Issued by NWS

Home | Current Version | Previous Version | Text Only | Print | Product List | Glossary On
Versions: 1 2 3 4 5 6 7 8 9 10 11 12 13 14 15 16 17
000
FTAK31 PAFA 242028 AAB
TAFAGA
TAF AMD
PAGA 242028Z 2420/2518 13015G25KT P6SM -RA BKN019 OVC025
     FM242300 20011G17KT P6SM -SHRA BKN025
     FM250700 17008KT 5SM BR VCSH SCT025 BKN050=

USA.gov is the U.S. government's official web portal to all federal, state and local government web resources and services.